createdAt,value
2023-05-06T00:02:10.732Z,11.84
2023-05-06T00:04:38.636Z,11.81
2023-05-06T00:07:06.068Z,11.80
2023-05-06T00:09:32.890Z,11.78
2023-05-06T00:11:59.957Z,11.77
2023-05-06T00:14:27.208Z,11.78
2023-05-06T00:16:54.461Z,11.78
2023-05-06T00:19:22.146Z,11.75
2023-05-06T00:21:49.024Z,11.72
2023-05-06T00:24:15.913Z,11.70
2023-05-06T00:26:42.720Z,11.68
2023-05-06T00:29:09.617Z,11.69
2023-05-06T00:31:36.502Z,11.68
2023-05-06T00:34:03.339Z,11.67
2023-05-06T00:36:30.258Z,11.64
2023-05-06T00:38:57.339Z,11.62
2023-05-06T00:41:24.278Z,11.58
2023-05-06T00:43:51.127Z,11.54
2023-05-06T00:46:18.513Z,11.50
2023-05-06T00:48:45.948Z,11.47
2023-05-06T00:51:12.897Z,11.46
2023-05-06T00:53:40.263Z,11.44
2023-05-06T00:56:07.585Z,11.44
2023-05-06T00:58:34.635Z,11.41
2023-05-06T01:01:02.068Z,11.37
2023-05-06T01:03:29.293Z,11.33
2023-05-06T01:06:19.473Z,11.31
2023-05-06T01:09:10.878Z,11.29
2023-05-06T01:11:51.361Z,11.27
2023-05-06T01:14:36.510Z,11.25
2023-05-06T01:17:06.406Z,11.22
2023-05-06T01:19:34.942Z,11.20
2023-05-06T01:22:03.542Z,11.15
2023-05-06T01:24:44.161Z,11.11
2023-05-06T01:27:12.284Z,11.07
2023-05-06T01:29:42.061Z,11.05
2023-05-06T01:32:22.036Z,11.04
2023-05-06T01:34:55.191Z,11.01
2023-05-06T01:37:47.420Z,11.00
2023-05-06T01:40:15.092Z,10.99
2023-05-06T01:42:42.042Z,10.96
2023-05-06T01:45:09.786Z,10.91
2023-05-06T01:47:37.090Z,10.86
2023-05-06T01:50:04.699Z,10.84
2023-05-06T01:52:33.132Z,10.82
2023-05-06T01:54:59.965Z,10.82
2023-05-06T01:57:27.631Z,10.82
2023-05-06T01:59:54.482Z,10.83
2023-05-06T02:02:21.469Z,10.83
2023-05-06T02:04:48.481Z,10.81
2023-05-06T02:07:15.662Z,10.79
2023-05-06T02:09:43.924Z,10.78
2023-05-06T02:12:11.612Z,10.76
2023-05-06T02:14:38.453Z,10.74
2023-05-06T02:17:06.235Z,10.73
2023-05-06T02:19:33.262Z,10.73
2023-05-06T02:22:00.168Z,10.73
2023-05-06T02:24:27.058Z,10.71
2023-05-06T02:26:53.905Z,10.68
2023-05-06T02:29:20.959Z,10.67
2023-05-06T02:31:47.857Z,10.66
2023-05-06T02:34:16.598Z,10.66
2023-05-06T02:36:43.560Z,10.68
2023-05-06T02:39:10.497Z,10.66
2023-05-06T02:41:37.456Z,10.65
2023-05-06T02:44:04.475Z,10.60
2023-05-06T02:46:31.306Z,10.59
2023-05-06T02:48:58.188Z,10.57
2023-05-06T02:51:25.148Z,10.56
2023-05-06T02:53:52.201Z,10.58
2023-05-06T02:56:19.163Z,10.59
2023-05-06T02:58:46.001Z,10.60
2023-05-06T03:01:13.180Z,10.60
2023-05-06T03:03:40.204Z,10.58
2023-05-06T03:06:07.171Z,10.55
2023-05-06T03:08:34.105Z,10.54
2023-05-06T03:11:01.594Z,10.53
2023-05-06T03:13:28.863Z,10.52
2023-05-06T03:15:56.515Z,10.50
2023-05-06T03:18:24.265Z,10.51
2023-05-06T03:20:51.622Z,10.48
2023-05-06T03:23:18.528Z,10.46
2023-05-06T03:25:46.050Z,10.44
2023-05-06T03:28:13.521Z,10.42
2023-05-06T03:30:41.162Z,10.40
2023-05-06T03:33:08.658Z,10.40
2023-05-06T03:35:35.743Z,10.40
2023-05-06T03:38:02.941Z,10.41
2023-05-06T03:40:41.341Z,10.41
2023-05-06T03:43:08.626Z,10.43
2023-05-06T03:45:36.103Z,10.43
2023-05-06T03:48:03.578Z,10.40
2023-05-06T03:50:31.294Z,10.38
2023-05-06T03:52:58.271Z,10.37
2023-05-06T03:55:25.517Z,10.33
2023-05-06T03:57:52.663Z,10.30
2023-05-06T04:00:20.442Z,10.30
2023-05-06T04:02:49.657Z,10.31
2023-05-06T04:05:21.286Z,10.33
2023-05-06T04:07:48.364Z,10.34
2023-05-06T04:10:15.311Z,10.35
2023-05-06T04:12:43.434Z,10.35
2023-05-06T04:15:12.171Z,10.38
2023-05-06T04:17:39.818Z,10.42
2023-05-06T04:20:11.627Z,10.46
2023-05-06T04:22:39.358Z,10.51
2023-05-06T04:25:08.708Z,10.58
2023-05-06T04:27:36.407Z,10.68
2023-05-06T04:30:04.744Z,10.76
2023-05-06T04:32:31.998Z,10.82
2023-05-06T04:34:59.129Z,10.86
2023-05-06T04:37:28.532Z,10.92
2023-05-06T04:40:04.609Z,11.01
2023-05-06T04:42:32.670Z,11.06
2023-05-06T04:45:06.607Z,11.13
2023-05-06T04:47:34.191Z,11.26
2023-05-06T04:50:01.716Z,11.46
2023-05-06T04:52:28.997Z,11.67
2023-05-06T04:54:55.922Z,11.81
2023-05-06T04:57:23.178Z,11.85
2023-05-06T04:59:50.744Z,11.89
2023-05-06T05:02:17.975Z,11.95
2023-05-06T05:04:44.912Z,12.02
2023-05-06T05:07:11.837Z,11.98
2023-05-06T05:09:38.957Z,12.05
2023-05-06T05:12:06.936Z,12.23
2023-05-06T05:14:35.919Z,12.70
2023-05-06T05:17:03.102Z,13.32
2023-05-06T05:19:30.029Z,13.96
2023-05-06T05:21:57.297Z,14.65
2023-05-06T05:24:25.058Z,15.03
2023-05-06T05:26:51.906Z,15.27
2023-05-06T05:29:18.804Z,15.31
2023-05-06T05:31:46.496Z,15.16
2023-05-06T05:34:13.681Z,14.94
2023-05-06T05:36:40.853Z,14.72
2023-05-06T05:39:09.740Z,14.67
2023-05-06T05:41:39.655Z,14.65
2023-05-06T05:44:07.014Z,14.59
2023-05-06T05:46:34.220Z,14.57
2023-05-06T05:49:02.389Z,14.53
2023-05-06T05:51:32.358Z,14.54
2023-05-06T05:54:00.241Z,14.62
2023-05-06T05:56:27.404Z,14.69
2023-05-06T05:58:54.322Z,14.90
2023-05-06T06:01:21.709Z,15.32
2023-05-06T06:03:49.738Z,15.85
2023-05-06T06:06:16.932Z,16.10
2023-05-06T06:08:44.794Z,16.19
2023-05-06T06:11:12.438Z,16.37
2023-05-06T06:13:40.545Z,16.54
2023-05-06T06:16:08.244Z,16.91
2023-05-06T06:18:35.685Z,17.17
2023-05-06T06:21:03.076Z,17.20
2023-05-06T06:23:29.940Z,17.57
2023-05-06T06:25:56.831Z,18.10
2023-05-06T06:28:23.800Z,18.10
2023-05-06T06:30:50.970Z,17.99
2023-05-06T06:33:17.898Z,17.97
2023-05-06T06:35:45.245Z,18.44
2023-05-06T06:38:12.109Z,18.67
2023-05-06T06:40:38.981Z,18.52
2023-05-06T06:43:05.805Z,18.16
2023-05-06T06:45:51.593Z,17.74
2023-05-06T06:48:19.067Z,17.61
2023-05-06T06:50:45.987Z,17.66
2023-05-06T06:53:12.820Z,17.63
2023-05-06T06:55:43.187Z,17.44
2023-05-06T06:58:10.062Z,17.35
2023-05-06T07:00:36.950Z,17.43
2023-05-06T07:03:04.109Z,17.49
2023-05-06T07:05:31.372Z,17.53
2023-05-06T07:07:58.323Z,17.56
2023-05-06T07:10:25.220Z,17.43
2023-05-06T07:12:52.185Z,17.27
2023-05-06T07:15:19.479Z,17.21
2023-05-06T07:17:46.370Z,17.10
2023-05-06T07:20:13.252Z,17.05
2023-05-06T07:22:41.459Z,16.94
2023-05-06T07:25:09.116Z,16.88
2023-05-06T07:27:36.415Z,16.84
2023-05-06T07:30:03.749Z,16.85
2023-05-06T07:32:30.988Z,16.86
2023-05-06T07:34:57.970Z,16.91
2023-05-06T07:37:27.673Z,16.97
2023-05-06T07:39:54.616Z,16.94
2023-05-06T07:42:21.489Z,16.90
2023-05-06T07:44:48.367Z,16.92
2023-05-06T07:47:27.578Z,17.25
2023-05-06T07:49:55.142Z,17.59
2023-05-06T07:52:23.103Z,17.71
2023-05-06T07:54:50.115Z,17.96
2023-05-06T07:57:17.188Z,17.95
2023-05-06T07:59:46.812Z,17.95
2023-05-06T08:02:13.687Z,17.81
2023-05-06T08:04:41.004Z,17.69
2023-05-06T08:07:08.075Z,17.65
2023-05-06T08:09:34.917Z,17.61
2023-05-06T08:12:01.964Z,17.54
2023-05-06T08:14:28.919Z,17.47
2023-05-06T08:16:55.984Z,17.44
2023-05-06T08:19:22.925Z,17.43
2023-05-06T08:21:50.642Z,17.44
2023-05-06T08:24:17.535Z,17.50
2023-05-06T08:26:44.488Z,17.71
2023-05-06T08:29:11.443Z,17.84
2023-05-06T08:31:38.552Z,18.17
2023-05-06T08:34:05.703Z,18.36
2023-05-06T08:36:32.701Z,18.18
2023-05-06T08:38:59.561Z,18.06
2023-05-06T08:41:26.606Z,17.92
2023-05-06T08:43:53.756Z,17.81
2023-05-06T08:46:20.680Z,17.71
2023-05-06T08:48:47.767Z,17.63
2023-05-06T08:51:17.970Z,17.68
2023-05-06T08:53:48.562Z,17.67
2023-05-06T08:56:16.510Z,17.65
2023-05-06T08:58:45.591Z,17.67
2023-05-06T09:01:14.025Z,17.67
2023-05-06T09:03:40.950Z,17.71
2023-05-06T09:06:08.139Z,17.72
2023-05-06T09:08:36.386Z,17.73
2023-05-06T09:11:03.419Z,17.74
2023-05-06T09:13:31.006Z,17.75
2023-05-06T09:15:57.928Z,17.85
2023-05-06T09:18:24.874Z,17.94
2023-05-06T09:20:51.934Z,17.91
2023-05-06T09:23:19.307Z,17.82
2023-05-06T09:25:47.180Z,17.77
2023-05-06T09:28:14.397Z,17.76
2023-05-06T09:30:45.620Z,17.76
2023-05-06T09:33:12.637Z,17.72
2023-05-06T09:35:41.182Z,17.66
2023-05-06T09:38:08.991Z,17.65
2023-05-06T09:40:36.544Z,17.66
2023-05-06T09:43:04.141Z,17.70
2023-05-06T09:45:31.062Z,17.78
2023-05-06T09:47:58.813Z,17.81
2023-05-06T09:50:26.853Z,17.78
2023-05-06T09:52:53.828Z,17.73
2023-05-06T09:55:21.637Z,17.68
2023-05-06T09:57:49.496Z,17.63
2023-05-06T10:00:17.311Z,17.60
2023-05-06T10:02:45.764Z,17.63
2023-05-06T10:05:13.479Z,17.64
2023-05-06T10:07:42.533Z,17.66
2023-05-06T10:10:11.490Z,17.71
2023-05-06T10:12:38.517Z,17.75
2023-05-06T10:15:06.379Z,17.80
2023-05-06T10:17:33.340Z,17.83
2023-05-06T10:20:01.037Z,17.81
2023-05-06T10:22:39.264Z,17.80
2023-05-06T10:25:16.989Z,17.82
2023-05-06T10:27:43.887Z,17.87
2023-05-06T10:30:14.650Z,17.81
2023-05-06T10:32:43.194Z,17.70
2023-05-06T10:35:44.293Z,17.70
2023-05-06T10:38:15.642Z,17.70
2023-05-06T10:40:43.175Z,17.78
2023-05-06T10:43:30.914Z,17.84
2023-05-06T10:46:18.109Z,17.90
2023-05-06T10:49:14.028Z,17.81
2023-05-06T10:51:43.935Z,17.66
2023-05-06T10:54:11.716Z,17.65
2023-05-06T10:56:51.147Z,17.69
2023-05-06T10:59:22.192Z,17.69
2023-05-06T11:01:57.438Z,17.69
2023-05-06T11:04:24.384Z,17.67
2023-05-06T11:06:53.207Z,17.66
2023-05-06T11:09:20.967Z,17.68
2023-05-06T11:12:04.487Z,17.76
2023-05-06T11:14:38.605Z,17.79
2023-05-06T11:17:07.057Z,17.75
2023-05-06T11:19:35.394Z,17.79
2023-05-06T11:22:04.100Z,17.79
2023-05-06T11:24:41.877Z,17.74
2023-05-06T11:27:09.509Z,17.60
2023-05-06T11:29:37.285Z,17.51
2023-05-06T11:32:05.713Z,17.53
2023-05-06T11:34:33.020Z,17.57
2023-05-06T11:37:03.567Z,17.62
2023-05-06T11:39:38.773Z,17.68
2023-05-06T11:42:07.358Z,17.70
2023-05-06T11:44:35.885Z,17.67
2023-05-06T11:47:07.061Z,17.64
2023-05-06T11:49:43.321Z,17.68
2023-05-06T11:52:10.894Z,17.66
2023-05-06T11:54:41.994Z,17.67
2023-05-06T11:57:09.092Z,17.69
2023-05-06T11:59:40.079Z,17.69
2023-05-06T12:02:08.888Z,17.69
2023-05-06T12:04:43.345Z,17.64
2023-05-06T12:07:14.369Z,17.56
2023-05-06T12:09:49.388Z,17.49
2023-05-06T12:12:17.654Z,17.44
2023-05-06T12:14:44.597Z,17.40
2023-05-06T12:17:12.479Z,17.41
2023-05-06T12:19:39.366Z,17.42
2023-05-06T12:22:16.246Z,17.40
2023-05-06T12:24:43.240Z,17.39
2023-05-06T12:27:10.215Z,17.35
2023-05-06T12:29:37.076Z,17.24
2023-05-06T12:32:10.952Z,17.16
2023-05-06T12:34:41.405Z,17.15
2023-05-06T12:37:08.953Z,17.14
2023-05-06T12:39:36.943Z,17.14
2023-05-06T12:42:03.982Z,17.12
2023-05-06T12:44:37.608Z,17.12
2023-05-06T12:47:08.959Z,17.07
2023-05-06T12:49:55.559Z,17.00
2023-05-06T12:52:23.618Z,16.95
2023-05-06T12:54:50.669Z,16.93
2023-05-06T12:57:17.737Z,16.96
2023-05-06T12:59:45.866Z,16.97
2023-05-06T13:02:13.106Z,16.96
2023-05-06T13:04:40.862Z,16.95
2023-05-06T13:07:07.981Z,16.92
2023-05-06T13:09:34.933Z,16.87
2023-05-06T13:12:02.759Z,16.79
2023-05-06T13:14:29.668Z,16.74
2023-05-06T13:16:56.581Z,16.71
2023-05-06T13:19:32.466Z,16.71
2023-05-06T13:22:01.305Z,16.71
2023-05-06T13:24:29.355Z,16.73
2023-05-06T13:26:57.603Z,16.75
2023-05-06T13:29:24.721Z,16.81
2023-05-06T13:31:51.962Z,16.85
2023-05-06T13:34:19.014Z,16.88
2023-05-06T13:36:47.868Z,16.92
2023-05-06T13:39:16.206Z,16.88
2023-05-06T13:41:45.883Z,16.88
2023-05-06T13:44:12.808Z,16.88
2023-05-06T13:46:39.898Z,16.88
2023-05-06T13:49:06.852Z,16.83
2023-05-06T13:51:34.792Z,16.74
2023-05-06T13:54:02.490Z,16.64
2023-05-06T13:56:29.417Z,16.61
2023-05-06T13:58:56.495Z,16.62
2023-05-06T14:01:24.239Z,16.63
2023-05-06T14:03:51.141Z,16.64
2023-05-06T14:06:18.041Z,16.66
2023-05-06T14:08:45.422Z,16.67
2023-05-06T14:11:12.351Z,16.68
2023-05-06T14:13:39.744Z,16.68
2023-05-06T14:16:07.065Z,16.67
2023-05-06T14:18:34.172Z,16.64
2023-05-06T14:21:01.059Z,16.60
2023-05-06T14:23:28.019Z,16.58
2023-05-06T14:25:54.881Z,16.56
2023-05-06T14:28:21.817Z,16.52
2023-05-06T14:30:50.963Z,16.47
2023-05-06T14:33:17.860Z,16.47
2023-05-06T14:35:46.169Z,16.45
2023-05-06T14:38:13.354Z,16.42
2023-05-06T14:40:40.645Z,16.38
2023-05-06T14:43:07.644Z,16.37
2023-05-06T14:45:35.157Z,16.35
2023-05-06T14:48:02.477Z,16.33
2023-05-06T14:50:30.317Z,16.30
2023-05-06T14:52:57.450Z,16.27
2023-05-06T14:55:24.704Z,16.25
2023-05-06T14:57:51.657Z,16.20
2023-05-06T15:00:19.446Z,16.17
2023-05-06T15:02:46.430Z,16.14
2023-05-06T15:05:13.890Z,16.11
2023-05-06T15:07:41.898Z,16.09
2023-05-06T15:10:09.236Z,16.07
2023-05-06T15:12:37.209Z,16.04
2023-05-06T15:15:05.511Z,16.02
2023-05-06T15:17:32.831Z,16.02
2023-05-06T15:19:59.859Z,16.03
2023-05-06T15:22:26.841Z,16.03
2023-05-06T15:24:53.751Z,16.02
2023-05-06T15:27:20.697Z,15.99
2023-05-06T15:29:47.554Z,15.95
2023-05-06T15:32:14.405Z,15.92
2023-05-06T15:34:41.464Z,15.88
2023-05-06T15:37:08.385Z,15.87
2023-05-06T15:39:39.150Z,15.86
2023-05-06T15:42:06.432Z,15.85
2023-05-06T15:44:33.992Z,15.84
2023-05-06T15:47:01.026Z,15.80
2023-05-06T15:52:00.566Z,15.72
2023-05-06T15:54:28.202Z,15.69
2023-05-06T15:56:55.152Z,15.67
2023-05-06T15:59:22.006Z,15.62
2023-05-06T16:04:19.014Z,15.53
2023-05-06T16:06:46.123Z,15.49
2023-05-06T16:09:13.093Z,15.45
2023-05-06T16:11:39.954Z,15.42
2023-05-06T16:14:06.874Z,15.38
2023-05-06T16:16:33.923Z,15.35
2023-05-06T16:19:00.876Z,15.30
2023-05-06T16:21:28.778Z,15.25
2023-05-06T16:23:55.672Z,15.20
2023-05-06T16:26:22.569Z,15.16
2023-05-06T16:28:49.518Z,15.12
2023-05-06T16:31:16.477Z,15.08
2023-05-06T16:33:43.405Z,15.04
2023-05-06T16:36:10.561Z,15.00
2023-05-06T16:38:37.831Z,14.94
2023-05-06T16:41:05.408Z,14.87
2023-05-06T16:43:32.248Z,14.80
2023-05-06T16:45:59.184Z,14.75
2023-05-06T16:48:26.290Z,14.68
2023-05-06T16:50:53.235Z,14.61
2023-05-06T16:53:20.880Z,14.53
2023-05-06T16:55:48.823Z,14.46
2023-05-06T16:58:15.995Z,14.36
2023-05-06T17:00:43.243Z,14.28
2023-05-06T17:03:10.472Z,14.19
2023-05-06T17:05:37.753Z,14.14
2023-05-06T17:08:05.591Z,14.07
2023-05-06T17:10:32.600Z,14.00
2023-05-06T17:12:59.644Z,13.93
2023-05-06T17:15:26.784Z,13.85
2023-05-06T17:17:53.755Z,13.78
2023-05-06T17:20:21.012Z,13.72
2023-05-06T17:22:48.156Z,13.67
2023-05-06T17:25:15.370Z,13.60
2023-05-06T17:27:42.350Z,13.53
2023-05-06T17:30:12.595Z,13.46
2023-05-06T17:32:39.878Z,13.40
2023-05-06T17:35:07.900Z,13.33
2023-05-06T17:37:34.988Z,13.27
2023-05-06T17:40:02.368Z,13.21
2023-05-06T17:42:30.300Z,13.17
2023-05-06T17:44:57.188Z,13.13
2023-05-06T17:47:24.132Z,13.08
2023-05-06T17:49:52.712Z,13.02
2023-05-06T17:52:20.051Z,12.97
2023-05-06T17:54:57.144Z,12.88
2023-05-06T17:57:30.523Z,12.80
2023-05-06T17:59:57.384Z,12.72
2023-05-06T18:02:24.336Z,12.67
2023-05-06T18:04:51.888Z,12.60
2023-05-06T18:07:18.772Z,12.54
2023-05-06T18:09:51.900Z,12.50
2023-05-06T18:12:19.813Z,12.46
2023-05-06T18:14:47.598Z,12.40
2023-05-06T18:17:14.455Z,12.34
2023-05-06T18:19:41.362Z,12.29
2023-05-06T18:22:08.237Z,12.24
2023-05-06T18:24:35.166Z,12.16
2023-05-06T18:27:02.536Z,12.10
2023-05-06T18:29:30.522Z,12.05
2023-05-06T18:31:57.582Z,12.00
2023-05-06T18:34:24.555Z,11.95
2023-05-06T18:36:51.554Z,11.88
2023-05-06T18:39:18.509Z,11.83
2023-05-06T18:41:45.559Z,11.77
2023-05-06T18:44:12.422Z,11.71
2023-05-06T18:46:39.563Z,11.65
2023-05-06T18:49:08.172Z,11.61
2023-05-06T18:51:35.103Z,11.55
2023-05-06T18:54:02.060Z,11.49
2023-05-06T18:56:29.037Z,11.40
2023-05-06T18:58:55.971Z,11.33
2023-05-06T19:01:23.064Z,11.28
2023-05-06T19:03:50.215Z,11.22
2023-05-06T19:06:17.214Z,11.16
2023-05-06T19:08:44.173Z,11.09
2023-05-06T19:11:15.638Z,11.00
2023-05-06T19:13:46.496Z,10.93
2023-05-06T19:16:13.896Z,10.87
2023-05-06T19:18:40.973Z,10.79
2023-05-06T19:21:12.044Z,10.74
2023-05-06T19:23:39.284Z,10.70
2023-05-06T19:26:06.757Z,10.63
2023-05-06T19:28:34.489Z,10.57
2023-05-06T19:31:01.641Z,10.53
2023-05-06T19:33:28.925Z,10.46
2023-05-06T19:35:55.874Z,10.42
2023-05-06T19:38:22.726Z,10.37
2023-05-06T19:40:49.644Z,10.34
2023-05-06T19:43:16.826Z,10.31
2023-05-06T19:45:43.758Z,10.26
2023-05-06T19:48:10.767Z,10.21
2023-05-06T19:50:37.679Z,10.18
2023-05-06T19:53:04.540Z,10.14
2023-05-06T19:55:31.788Z,10.11
2023-05-06T19:57:58.960Z,10.08
2023-05-06T20:00:28.121Z,10.04
2023-05-06T20:02:57.015Z,10.01
2023-05-06T20:05:24.735Z,9.96
2023-05-06T20:07:51.657Z,9.82
2023-05-06T20:10:18.615Z,9.77
2023-05-06T20:12:45.518Z,9.74
2023-05-06T20:15:12.779Z,9.69
2023-05-06T20:17:39.973Z,9.63
2023-05-06T20:20:11.819Z,9.57
2023-05-06T20:22:39.641Z,9.54
2023-05-06T20:25:16.301Z,9.51
2023-05-06T20:27:43.981Z,9.49
2023-05-06T20:30:11.456Z,9.44
2023-05-06T20:32:39.409Z,9.38
2023-05-06T20:35:06.898Z,9.36
2023-05-06T20:37:35.427Z,9.30
2023-05-06T20:40:04.914Z,9.23
2023-05-06T20:42:32.024Z,9.15
2023-05-06T20:44:59.052Z,9.10
2023-05-06T20:47:26.523Z,9.05
2023-05-06T20:49:53.683Z,8.97
2023-05-06T20:52:21.765Z,8.91
2023-05-06T20:54:48.862Z,8.83
2023-05-06T20:57:16.697Z,8.79
2023-05-06T20:59:43.666Z,8.76
2023-05-06T21:02:10.664Z,8.74
2023-05-06T21:04:37.726Z,8.69
2023-05-06T21:07:04.675Z,8.65
2023-05-06T21:09:31.614Z,8.60
2023-05-06T21:11:58.579Z,8.54
2023-05-06T21:14:26.272Z,8.50
2023-05-06T21:16:53.386Z,8.46
2023-05-06T21:19:20.642Z,8.42
2023-05-06T21:21:47.566Z,8.39
2023-05-06T21:24:14.554Z,8.36
2023-05-06T21:26:41.611Z,8.33
2023-05-06T21:29:08.509Z,8.30
2023-05-06T21:31:35.466Z,8.28
2023-05-06T21:34:03.681Z,8.26
2023-05-06T21:36:31.350Z,8.25
2023-05-06T21:39:08.066Z,8.23
2023-05-06T21:41:36.254Z,8.20
2023-05-06T21:44:07.144Z,8.17
2023-05-06T21:46:34.975Z,8.12
2023-05-06T21:49:02.047Z,8.10
2023-05-06T21:51:30.578Z,8.06
2023-05-06T21:53:57.452Z,8.00
2023-05-06T21:56:24.434Z,7.97
2023-05-06T21:58:52.938Z,7.93
2023-05-06T22:01:19.946Z,7.89
2023-05-06T22:03:48.042Z,7.87
2023-05-06T22:06:15.736Z,7.83
2023-05-06T22:08:42.725Z,7.81
2023-05-06T22:11:09.612Z,7.77
2023-05-06T22:13:36.685Z,7.73
2023-05-06T22:16:04.187Z,7.69
2023-05-06T22:18:31.843Z,7.66
2023-05-06T22:20:58.873Z,7.63
2023-05-06T22:23:26.044Z,7.58
2023-05-06T22:25:52.994Z,7.54
2023-05-06T22:28:20.134Z,7.53
2023-05-06T22:30:47.097Z,7.51
2023-05-06T22:33:14.334Z,7.50
2023-05-06T22:35:41.283Z,7.48
2023-05-06T22:38:08.373Z,7.45
2023-05-06T22:40:35.266Z,7.44
2023-05-06T22:43:02.136Z,7.42
2023-05-06T22:45:29.114Z,7.40
2023-05-06T22:47:56.121Z,7.38
2023-05-06T22:50:23.196Z,7.35
2023-05-06T22:52:50.155Z,7.32
2023-05-06T22:55:17.098Z,7.29
2023-05-06T22:57:44.365Z,7.26
2023-05-06T23:00:12.909Z,7.24
2023-05-06T23:02:40.058Z,7.22
2023-05-06T23:05:07.455Z,7.20
2023-05-06T23:07:34.405Z,7.17
2023-05-06T23:10:01.361Z,7.14
2023-05-06T23:12:32.401Z,7.10
2023-05-06T23:15:00.380Z,7.08
2023-05-06T23:17:27.345Z,7.05
2023-05-06T23:19:59.198Z,7.03
2023-05-06T23:22:26.850Z,7.00
2023-05-06T23:24:55.083Z,6.98
2023-05-06T23:27:22.030Z,6.95
2023-05-06T23:29:49.108Z,6.93
2023-05-06T23:32:15.982Z,6.89
2023-05-06T23:34:42.863Z,6.87
2023-05-06T23:37:11.872Z,6.84
2023-05-06T23:39:39.090Z,6.81
2023-05-06T23:42:06.127Z,6.78
2023-05-06T23:44:32.975Z,6.76
2023-05-06T23:46:59.891Z,6.71
2023-05-06T23:49:26.718Z,6.67
2023-05-06T23:51:53.650Z,6.66
2023-05-06T23:54:21.050Z,6.63
2023-05-06T23:56:48.037Z,6.60
2023-05-06T23:59:14.881Z,6.56
